Flight Track Log - Related Links

Times and Time Zones

All times are in EDT time to prevent confusion due to time zone crossing. See the EGF4247 flight status page for this flight to view local times or setup timezone preferences in your user account.

Time Position Orientation Groundspeed Altitude Reporting Facility
EDT Latitude Longitude Course Direction KTS MPH feet Rate Location/Type
Thu 03:47:54 PM 42.9500 -78.7000 270° West 166 191 1,600  Level Buffalo TRACON
Thu 03:48:36 PM 42.9833 -78.6833 20° North 190 219 2,600 1,588 Climbing Buffalo TRACON
Thu 03:49:36 PM 43.0167 -78.7500 304° West 263 303 4,300 2,050 Climbing Buffalo TRACON
Thu 03:50:00 PM 42.9521 -79.0920 277° West  Level FlightAware Approximate
Thu 03:50:36 PM 43.0167 -78.8500 270° West 271 312 6,700  Level Buffalo TRACON
Thu 03:51:00 PM 42.9626 -79.2173 277° West  Level FlightAware Approximate
Thu 03:51:32 PM 43.0167 -78.9333 270° West 270 311 8,600  Level Toronto Center
Thu 03:52:00 PM 42.9667 -79.3431 270° West  Level FlightAware Approximate
Thu 03:52:32 PM 43.0167 -79.0333 270° West 290 334 10,600  Level Toronto Center
Thu 03:53:00 PM 42.9667 -79.4692 270° West  Level FlightAware Approximate
Thu 03:53:32 PM 43.0167 -79.1500 270° West 310 357 12,000  Level Toronto Center
Thu 03:54:32 PM 43.0167 -79.2667 270° West 330 380 13,500 1,550 Climbing Toronto Center
Thu 03:55:32 PM 43.0167 -79.4000 270° West 340 391 15,100 1,500 Climbing Toronto Center
Thu 03:56:32 PM 43.0167 -79.5500 270° West 350 403 16,500 1,450 Climbing Toronto Center
Thu 03:57:32 PM 43.0167 -79.6833 270° West 350 403 18,000 1,350 Climbing Toronto Center
Thu 03:58:32 PM 43.0167 -79.8167 270° West 350 403 19,200 1,300 Climbing Toronto Center
Thu 03:59:32 PM 43.0167 -79.9333 270° West 350 403 20,600 1,500 Climbing Toronto Center
Thu 04:00:32 PM 43.0333 -80.0833 279° West 360 414 22,200 1,500 Climbing Toronto Center
Thu 04:01:32 PM 43.0333 -80.2000 270° West 360 414 23,600 1,450 Climbing Toronto Center
Thu 04:02:32 PM 43.0333 -80.3333 270° West 360 414 25,100 1,500 Climbing Toronto Center
Thu 04:03:32 PM 43.0333 -80.4833 270° West 350 403 26,600 1,500 Climbing Toronto Center
Thu 04:04:32 PM 43.0333 -80.6167 270° West 350 403 28,100 1,300 Climbing Toronto Center
Thu 04:05:32 PM 43.0333 -80.7500 270° West 340 391 29,200 1,050 Climbing Toronto Center
Thu 04:06:32 PM 43.0167 -80.8833 260° West 350 403 30,200 1,000 Climbing Toronto Center
Thu 04:07:32 PM 43.0167 -81.0167 270° West 360 414 31,200 900 Climbing Toronto Center
Thu 04:08:32 PM 43.0167 -81.1667 270° West 360 414 32,000 400 Climbing Toronto Center
Thu 04:09:32 PM 43.0167 -81.3000 270° West 380 437 32,000  Level Toronto Center
Thu 04:10:32 PM 43.0167 -81.4500 270° West 410 472 32,000  Level Toronto Center
Thu 04:11:32 PM 43.0167 -81.6167 270° West 420 483 32,000  Level Toronto Center
Thu 04:12:32 PM 43.0167 -81.7833 270° West 430 495 32,000  Level Toronto Center
Thu 04:13:32 PM 43.0000 -81.9333 261° West 430 495 32,000  Level Toronto Center
Thu 04:14:32 PM 43.0000 -82.1000 270° West 440 506 32,000  Level Toronto Center
Thu 04:15:32 PM 43.0000 -82.2833 270° West 440 506 32,000  Level Toronto Center
Thu 04:16:32 PM 43.0000 -82.4333 270° West 430 495 32,000  Level Toronto Center
Thu 04:17:32 PM 43.0000 -82.6167 270° West 430 495 32,000  Level Toronto Center
Thu 04:17:47 PM 43.0042 -82.6583 278° West 437 503 32,000  Level Cleveland Center
Thu 04:18:48 PM 42.9992 -82.8231 268° West 437 503 32,000  Level Cleveland Center
Thu 04:19:47 PM 42.9958 -82.9847 268° West 437 503 32,000  Level Cleveland Center
Thu 04:20:47 PM 42.9881 -83.1489 266° West 437 503 32,000  Level Cleveland Center
Thu 04:21:47 PM 42.9822 -83.3161 267° West 437 503 32,000  Level Cleveland Center
Thu 04:22:47 PM 42.9761 -83.4778 267° West 437 503 32,000  Level Cleveland Center
Thu 04:23:47 PM 42.9697 -83.6447 267° West 437 503 32,000  Level Cleveland Center
Thu 04:24:47 PM 42.9592 -83.8061 265° West 437 503 32,000  Level Cleveland Center
Thu 04:25:47 PM 42.9461 -83.9672 264° West 437 503 32,000  Level Cleveland Center
Thu 04:26:47 PM 42.9289 -84.1250 262° West 442 509 32,000  Level Cleveland Center
Thu 04:27:47 PM 42.9133 -84.2886 263° West 442 509 32,000  Level Cleveland Center
Thu 04:28:54 PM 42.8986 -84.4547 263° West 429 494 32,000  Level Chicago Center
Thu 04:29:56 PM 42.8817 -84.6161 262° West 430 495 32,000  Level Chicago Center
Thu 04:30:58 PM 42.8658 -84.7764 262° West 428 493 32,000  Level Chicago Center
Thu 04:32:00 PM 42.8486 -84.9364 262° West 428 493 32,000  Level Chicago Center
Thu 04:33:02 PM 42.8317 -85.0983 262° West 431 496 32,000 -387 Level Chicago Center
Thu 04:34:04 PM 42.8100 -85.2911 261° West 431 496 31,200 -919 Descending Chicago Center
Thu 04:35:06 PM 42.7908 -85.4517 261° West 430 495 30,100 -1,403 Descending Chicago Center
Thu 04:36:08 PM 42.7592 -85.6089 255° West 428 493 28,300 -1,887 Descending Chicago Center
Thu 04:37:10 PM 42.7275 -85.7708 255° West 438 504 26,200 -2,032 Descending Chicago Center
Thu 04:38:12 PM 42.6958 -85.9311 255° West 436 502 24,100 -2,032 Descending Chicago Center
Thu 04:39:14 PM 42.6656 -86.0847 255° West 422 486 22,000 -1,834 Descending Chicago Center
Thu 04:41:00 PM 42.6244 -86.3144 256° West  Level FlightAware Approximate
Thu 04:44:25 PM 42.5158 -86.8286 270° West 376 433 12,700  Level Chicago Center
Thu 04:46:00 PM 42.4299 -87.0046 251° West  Level Estimated
Thu 04:46:29 PM 42.4600 -87.0903 217° Southwest 358 412 9,900  Level Chicago Center
Thu 04:47:31 PM 42.4208 -87.2372 250° West 348 400 10,000 48 Climbing Chicago Center
Thu 04:48:00 PM 42.4235 -87.2064 251° West  Level FlightAware Approximate
Thu 04:48:33 PM 42.3872 -87.3583 249° West 346 398 10,000  Level Chicago Center
Thu 04:49:00 PM 42.3833 -87.3229 270° West  Level FlightAware Approximate
Thu 04:49:35 PM 42.3544 -87.4747 249° West 336 387 10,000  Level Chicago Center
Thu 04:50:37 PM 42.2992 -87.5764 234° Southwest 349 402 10,000 -288 Level Chicago Center
Thu 04:51:40 PM 42.2350 -87.6442 218° Southwest 303 349 9,400 -1,200 Descending Chicago Center
Thu 04:52:42 PM 42.1656 -87.7186 218° Southwest 270 311 7,500 -1,243 Descending Chicago Center
Thu 04:53:00 PM 42.0470 -87.7768 217° Southwest  Level Estimated
Thu 04:53:31 PM 42.1167 -87.7667 216° Southwest 233 268 7,100  Level Chicago TRACON
Thu 04:54:00 PM 41.9919 -87.8863 217° Southwest  Level Estimated
Thu 04:54:25 PM 42.0833 -87.8333 236° Southwest 239 275 7,000  Level Chicago TRACON
Thu 04:55:25 PM 42.0833 -87.9167 270° West 254 292 7,000  Level Chicago TRACON
Thu 04:56:25 PM 42.1000 -88.0000 285° West 214 246 7,000 -238 Level Chicago TRACON
Thu 04:57:31 PM 42.0833 -88.0833 255° West 206 237 6,500 -893 Descending Chicago TRACON
Thu 04:58:26 PM 42.0833 -88.1500 270° West 198 228 5,200 -1,500 Descending Chicago TRACON
Thu 04:58:55 PM 42.0792 -88.1786 259° West 199 229 4,400 -1,400 Descending Chicago Center
Thu 04:59:56 PM 42.0306 -88.1769 179° South 186 214 3,100 -683 Descending Chicago Center
Thu 05:00:58 PM 42.0081 -88.1214 119° Southeast 173 199 3,000 -71 Descending Chicago Center
Thu 05:01:20 PM 42.0000 -88.1000 117° Southeast 163 188 3,000  Level Chicago TRACON

Login

Don't have an account? Register now (free) for customized features, flight alerts, and more!